createdAt,value
2023-01-30T00:01:32.632Z,0.89
2023-01-30T00:04:00.691Z,0.92
2023-01-30T00:06:29.165Z,0.94
2023-01-30T00:08:57.171Z,0.95
2023-01-30T00:11:25.402Z,0.96
2023-01-30T00:13:54.483Z,0.93
2023-01-30T00:16:22.750Z,0.93
2023-01-30T00:18:52.210Z,0.95
2023-01-30T00:21:20.478Z,0.93
2023-01-30T00:23:56.114Z,0.91
2023-01-30T00:26:24.254Z,0.90
2023-01-30T00:28:53.023Z,0.91
2023-01-30T00:31:23.473Z,0.92
2023-01-30T00:33:51.872Z,0.91
2023-01-30T00:36:19.968Z,0.91
2023-01-30T00:38:48.319Z,0.92
2023-01-30T00:41:19.019Z,0.93
2023-01-30T00:44:22.842Z,0.93
2023-01-30T00:47:05.958Z,0.91
2023-01-30T00:49:36.393Z,0.91
2023-01-30T00:52:04.919Z,0.89
2023-01-30T00:54:33.828Z,0.89
2023-01-30T00:57:02.504Z,0.88
2023-01-30T00:59:30.608Z,0.88
2023-01-30T01:01:58.868Z,0.88
2023-01-30T01:04:26.992Z,0.88
2023-01-30T01:06:55.418Z,0.90
2023-01-30T01:09:23.558Z,0.90
2023-01-30T01:11:51.979Z,0.88
2023-01-30T01:14:21.130Z,0.87
2023-01-30T01:16:49.857Z,0.86
2023-01-30T01:19:18.168Z,0.82
2023-01-30T01:21:46.589Z,0.79
2023-01-30T01:24:15.401Z,0.76
2023-01-30T01:26:43.734Z,0.73
2023-01-30T01:29:16.009Z,0.72
2023-01-30T01:31:44.721Z,0.74
2023-01-30T01:34:13.112Z,0.72
2023-01-30T01:36:53.362Z,0.66
2023-01-30T01:39:22.863Z,0.67
2023-01-30T01:41:52.168Z,0.68
2023-01-30T01:44:20.678Z,0.68
2023-01-30T01:46:50.239Z,0.68
2023-01-30T01:49:23.562Z,0.69
2023-01-30T01:52:08.848Z,0.69
2023-01-30T01:54:47.420Z,0.68
2023-01-30T01:57:31.207Z,0.68
2023-01-30T02:00:10.101Z,0.69
2023-01-30T02:02:42.221Z,0.71
2023-01-30T02:05:11.499Z,0.74
2023-01-30T02:07:48.317Z,0.74
2023-01-30T02:10:21.916Z,0.74
2023-01-30T02:12:50.801Z,0.76
2023-01-30T02:15:19.656Z,0.78
2023-01-30T02:17:48.657Z,0.79
2023-01-30T02:20:32.492Z,0.80
2023-01-30T02:23:38.516Z,0.80
2023-01-30T02:26:45.563Z,0.82
2023-01-30T02:29:26.401Z,0.82
2023-01-30T02:32:00.435Z,0.83
2023-01-30T02:34:50.723Z,0.84
2023-01-30T02:37:41.685Z,0.87
2023-01-30T02:40:23.553Z,0.89
2023-01-30T02:43:12.950Z,0.88
2023-01-30T02:46:11.870Z,0.88
2023-01-30T02:49:09.251Z,0.86
2023-01-30T02:51:40.363Z,0.88
2023-01-30T02:54:10.513Z,0.89
2023-01-30T02:56:53.139Z,0.87
2023-01-30T02:59:36.341Z,0.86
2023-01-30T03:02:23.916Z,0.90
2023-01-30T03:05:12.051Z,0.92
2023-01-30T03:08:08.509Z,0.92
2023-01-30T03:10:59.114Z,0.94
2023-01-30T03:13:55.711Z,0.95
2023-01-30T03:16:27.414Z,0.90
2023-01-30T03:18:56.333Z,0.86
2023-01-30T03:21:24.447Z,0.87
2023-01-30T03:23:53.440Z,0.89
2023-01-30T03:26:25.047Z,0.88
2023-01-30T03:28:53.461Z,0.87
2023-01-30T03:31:22.290Z,0.86
2023-01-30T03:33:50.750Z,0.80
2023-01-30T03:36:19.379Z,0.74
2023-01-30T03:38:48.097Z,0.72
2023-01-30T03:41:16.659Z,0.75
2023-01-30T03:43:45.144Z,0.76
2023-01-30T03:46:13.652Z,0.76
2023-01-30T03:48:41.893Z,0.77
2023-01-30T03:51:12.468Z,0.77
2023-01-30T03:53:42.071Z,0.79
2023-01-30T03:56:11.205Z,0.77
2023-01-30T03:58:40.532Z,0.75
2023-01-30T04:01:19.710Z,0.71
2023-01-30T04:03:47.931Z,0.72
2023-01-30T04:06:16.433Z,0.72
2023-01-30T04:08:45.843Z,0.74
2023-01-30T04:11:22.802Z,0.71
2023-01-30T04:13:50.894Z,0.64
2023-01-30T04:16:23.667Z,0.65
2023-01-30T04:19:11.267Z,0.66
2023-01-30T04:21:40.605Z,0.64
2023-01-30T04:24:09.098Z,0.60
2023-01-30T04:26:37.409Z,0.50
2023-01-30T04:29:06.844Z,0.38
2023-01-30T04:31:35.576Z,0.40
2023-01-30T04:34:07.479Z,0.47
2023-01-30T04:36:37.187Z,0.49
2023-01-30T04:39:05.436Z,0.50
2023-01-30T04:41:33.891Z,0.49
2023-01-30T04:44:02.834Z,0.54
2023-01-30T04:46:41.944Z,0.59
2023-01-30T04:49:10.925Z,0.61
2023-01-30T04:51:39.379Z,0.63
2023-01-30T04:54:07.954Z,0.65
2023-01-30T04:56:37.619Z,0.64
2023-01-30T04:59:06.776Z,0.59
2023-01-30T05:01:39.600Z,0.58
2023-01-30T05:04:07.875Z,0.58
2023-01-30T05:06:36.792Z,0.56
2023-01-30T05:09:05.650Z,0.56
2023-01-30T05:11:34.587Z,0.55
2023-01-30T05:14:05.603Z,0.50
2023-01-30T05:16:34.166Z,0.50
2023-01-30T05:19:03.329Z,0.47
2023-01-30T05:21:33.897Z,0.43
2023-01-30T05:24:05.389Z,0.41
2023-01-30T05:26:33.553Z,0.40
2023-01-30T05:29:02.884Z,0.37
2023-01-30T05:31:31.201Z,0.38
2023-01-30T05:34:01.994Z,0.41
2023-01-30T05:36:30.775Z,0.40
2023-01-30T05:38:58.910Z,0.40
2023-01-30T05:41:29.913Z,0.43
2023-01-30T05:44:00.651Z,0.40
2023-01-30T05:46:29.210Z,0.36
2023-01-30T05:49:03.410Z,0.35
2023-01-30T05:51:31.834Z,0.34
2023-01-30T05:54:04.176Z,0.37
2023-01-30T05:56:33.792Z,0.41
2023-01-30T05:59:02.151Z,0.44
2023-01-30T06:01:36.115Z,0.49
2023-01-30T06:04:07.204Z,0.52
2023-01-30T06:06:35.306Z,0.51
2023-01-30T06:09:04.021Z,0.53
2023-01-30T06:11:33.352Z,0.47
2023-01-30T06:14:04.680Z,0.42
2023-01-30T06:16:35.866Z,0.42
2023-01-30T06:19:08.360Z,0.41
2023-01-30T06:21:39.058Z,0.44
2023-01-30T06:24:07.717Z,0.48
2023-01-30T06:26:35.860Z,0.54
2023-01-30T06:29:05.723Z,0.53
2023-01-30T06:31:40.003Z,0.52
2023-01-30T06:34:14.158Z,0.55
2023-01-30T06:36:44.217Z,0.55
2023-01-30T06:39:15.803Z,0.53
2023-01-30T06:41:46.365Z,0.53
2023-01-30T06:44:15.403Z,0.53
2023-01-30T06:46:46.232Z,0.50
2023-01-30T06:49:14.577Z,0.47
2023-01-30T06:51:45.709Z,0.46
2023-01-30T06:54:15.996Z,0.47
2023-01-30T06:56:50.620Z,0.52
2023-01-30T06:59:24.136Z,0.57
2023-01-30T07:01:57.309Z,0.65
2023-01-30T07:04:31.136Z,0.71
2023-01-30T07:07:05.273Z,0.74
2023-01-30T07:09:38.899Z,0.76
2023-01-30T07:12:07.160Z,0.76
2023-01-30T07:14:35.245Z,0.81
2023-01-30T07:17:05.645Z,0.85
2023-01-30T07:19:35.514Z,0.89
2023-01-30T07:22:03.689Z,0.85
2023-01-30T07:24:32.720Z,0.82
2023-01-30T07:27:00.884Z,0.86
2023-01-30T07:29:29.381Z,0.91
2023-01-30T07:32:00.907Z,0.88
2023-01-30T07:34:29.518Z,0.89
2023-01-30T07:36:57.685Z,0.89
2023-01-30T07:39:32.639Z,0.84
2023-01-30T07:42:02.811Z,0.87
2023-01-30T07:44:34.486Z,0.94
2023-01-30T07:47:02.891Z,1.01
2023-01-30T07:49:31.212Z,1.04
2023-01-30T07:51:59.513Z,1.11
2023-01-30T07:54:27.669Z,1.19
2023-01-30T07:56:56.063Z,1.24
2023-01-30T07:59:24.319Z,1.25
2023-01-30T08:01:52.598Z,1.27
2023-01-30T08:04:25.732Z,1.31
2023-01-30T08:06:54.269Z,1.35
2023-01-30T08:09:25.473Z,1.40
2023-01-30T08:11:54.664Z,1.41
2023-01-30T08:14:26.614Z,1.42
2023-01-30T08:16:56.913Z,1.38
2023-01-30T08:19:25.793Z,1.43
2023-01-30T08:21:55.176Z,1.52
2023-01-30T08:24:23.333Z,1.61
2023-01-30T08:26:54.042Z,1.65
2023-01-30T08:29:24.816Z,1.66
2023-01-30T08:31:57.996Z,1.67
2023-01-30T08:34:29.492Z,1.70
2023-01-30T08:37:02.201Z,1.74
2023-01-30T08:39:31.150Z,1.78
2023-01-30T08:42:01.841Z,1.82
2023-01-30T08:44:32.820Z,1.88
2023-01-30T08:47:00.981Z,1.92
2023-01-30T08:49:31.550Z,1.99
2023-01-30T08:52:00.008Z,2.03
2023-01-30T08:54:28.293Z,2.04
2023-01-30T08:56:59.358Z,2.04
2023-01-30T08:59:29.084Z,2.07
2023-01-30T09:02:00.105Z,2.11
2023-01-30T09:04:34.805Z,2.14
2023-01-30T09:07:05.015Z,2.11
2023-01-30T09:09:33.887Z,2.01
2023-01-30T09:12:07.228Z,1.88
2023-01-30T09:14:35.783Z,1.85
2023-01-30T09:17:04.248Z,1.84
2023-01-30T09:19:37.314Z,1.83
2023-01-30T09:22:08.983Z,1.79
2023-01-30T09:24:37.124Z,1.79
2023-01-30T09:27:05.402Z,1.81
2023-01-30T09:29:33.581Z,1.79
2023-01-30T09:32:01.848Z,1.76
2023-01-30T09:34:30.349Z,1.72
2023-01-30T09:37:05.324Z,1.72
2023-01-30T09:39:33.523Z,1.72
2023-01-30T09:42:06.216Z,1.71
2023-01-30T09:44:53.443Z,1.71
2023-01-30T09:47:24.332Z,1.70
2023-01-30T09:50:18.903Z,1.64
2023-01-30T09:53:02.012Z,1.52
2023-01-30T09:55:34.436Z,1.40
2023-01-30T09:58:25.200Z,1.37
2023-01-30T10:04:06.230Z,1.39
2023-01-30T10:06:42.928Z,1.39
2023-01-30T10:12:44.210Z,1.46
2023-01-30T10:15:45.856Z,1.51
2023-01-30T10:18:40.377Z,1.53
2023-01-30T10:21:22.814Z,1.53
2023-01-30T10:24:03.994Z,1.47
2023-01-30T10:26:34.241Z,1.45
2023-01-30T10:29:10.645Z,1.49
2023-01-30T10:34:50.905Z,1.60
2023-01-30T10:37:23.261Z,1.63
2023-01-30T10:40:15.016Z,1.62
2023-01-30T10:42:59.802Z,1.65
2023-01-30T10:46:00.435Z,1.65
2023-01-30T10:48:46.017Z,1.64
2023-01-30T10:51:47.921Z,1.66
2023-01-30T10:54:39.138Z,1.64
2023-01-30T10:57:32.429Z,1.70
2023-01-30T11:03:28.650Z,1.85
2023-01-30T11:06:01.484Z,1.87
2023-01-30T11:08:32.092Z,1.92
2023-01-30T11:11:00.993Z,1.98
2023-01-30T11:13:33.591Z,2.02
2023-01-30T11:16:06.709Z,2.05
2023-01-30T11:21:43.859Z,1.95
2023-01-30T11:24:19.671Z,1.96
2023-01-30T11:26:53.510Z,1.98
2023-01-30T11:29:31.488Z,1.99
2023-01-30T11:32:06.029Z,2.03
2023-01-30T11:34:34.334Z,2.06
2023-01-30T11:37:37.465Z,2.14
2023-01-30T11:40:19.025Z,2.18
2023-01-30T11:42:53.123Z,2.16
2023-01-30T11:45:21.292Z,2.14
2023-01-30T11:48:04.840Z,2.16
2023-01-30T11:53:35.988Z,2.17
2023-01-30T11:56:16.149Z,2.18
2023-01-30T12:01:34.543Z,2.16
2023-01-30T12:04:12.146Z,2.05
2023-01-30T12:09:36.070Z,1.97
2023-01-30T12:12:28.581Z,1.96
2023-01-30T12:15:20.924Z,1.83
2023-01-30T12:21:00.907Z,1.71
2023-01-30T12:23:41.166Z,1.73
2023-01-30T12:26:18.950Z,1.79
2023-01-30T12:29:02.614Z,1.85
2023-01-30T12:31:36.035Z,1.90
2023-01-30T12:34:04.348Z,1.87
2023-01-30T12:36:59.602Z,1.80
2023-01-30T12:39:33.591Z,1.83
2023-01-30T12:42:11.779Z,1.85
2023-01-30T12:44:56.654Z,1.87
2023-01-30T12:47:35.115Z,1.89
2023-01-30T12:50:37.197Z,1.92
2023-01-30T12:53:20.534Z,1.90
2023-01-30T12:56:05.397Z,1.89
2023-01-30T12:58:38.483Z,1.89
2023-01-30T13:01:48.308Z,1.89
2023-01-30T13:04:35.789Z,1.94
2023-01-30T13:07:16.751Z,1.95
2023-01-30T13:09:57.629Z,1.97
2023-01-30T13:12:33.084Z,1.94
2023-01-30T13:15:11.593Z,1.94
2023-01-30T13:18:17.289Z,1.96
2023-01-30T13:21:00.509Z,1.95
2023-01-30T13:23:56.514Z,1.90
2023-01-30T13:26:27.271Z,1.87
2023-01-30T13:29:00.410Z,1.86
2023-01-30T13:31:30.695Z,1.90
2023-01-30T13:34:31.763Z,1.94
2023-01-30T13:37:13.543Z,1.98
2023-01-30T13:40:17.513Z,2.02
2023-01-30T13:42:53.814Z,2.05
2023-01-30T13:45:25.282Z,2.05
2023-01-30T13:47:56.811Z,2.05
2023-01-30T13:50:47.318Z,1.99
2023-01-30T13:53:26.023Z,1.94
2023-01-30T13:56:27.184Z,1.91
2023-01-30T13:59:30.827Z,1.90
2023-01-30T14:02:09.551Z,1.89
2023-01-30T14:04:40.960Z,1.87
2023-01-30T14:07:12.103Z,1.88
2023-01-30T14:09:44.897Z,1.87
2023-01-30T14:12:26.136Z,1.87
2023-01-30T14:15:06.502Z,1.88
2023-01-30T14:17:35.272Z,1.88
2023-01-30T14:20:17.660Z,1.84
2023-01-30T14:22:56.043Z,1.79
2023-01-30T14:25:30.714Z,1.73
2023-01-30T14:28:02.001Z,1.69
2023-01-30T14:30:47.931Z,1.69
2023-01-30T14:33:19.406Z,1.69
2023-01-30T14:35:48.745Z,1.68
2023-01-30T14:38:20.151Z,1.66
2023-01-30T14:41:09.688Z,1.69
2023-01-30T14:43:42.967Z,1.68
2023-01-30T14:46:22.128Z,1.66
2023-01-30T14:49:05.326Z,1.66
2023-01-30T14:51:39.745Z,1.63
2023-01-30T14:54:23.455Z,1.66
2023-01-30T14:57:01.238Z,1.68
2023-01-30T14:59:36.360Z,1.64
2023-01-30T15:02:12.327Z,1.61
2023-01-30T15:04:56.358Z,1.60
2023-01-30T15:08:05.363Z,1.59
2023-01-30T15:10:55.995Z,1.60
2023-01-30T15:13:52.638Z,1.60
2023-01-30T15:16:53.273Z,1.58
2023-01-30T15:19:32.514Z,1.56
2023-01-30T15:22:24.031Z,1.55
2023-01-30T15:25:21.234Z,1.54
2023-01-30T15:28:01.611Z,1.51
2023-01-30T15:30:57.397Z,1.51
2023-01-30T15:33:32.083Z,1.47
2023-01-30T15:36:01.810Z,1.43
2023-01-30T15:38:32.163Z,1.44
2023-01-30T15:41:07.014Z,1.48
2023-01-30T15:43:48.386Z,1.53
2023-01-30T15:46:19.544Z,1.57
2023-01-30T15:48:54.736Z,1.58
2023-01-30T15:51:27.400Z,1.61
2023-01-30T15:53:56.256Z,1.64
2023-01-30T15:56:26.747Z,1.64
2023-01-30T15:58:54.825Z,1.61
2023-01-30T16:01:23.070Z,1.60
2023-01-30T16:03:53.367Z,1.62
2023-01-30T16:06:35.193Z,1.60
2023-01-30T16:09:08.306Z,1.59
2023-01-30T16:11:43.194Z,1.62
2023-01-30T16:14:17.958Z,1.65
2023-01-30T16:16:49.367Z,1.65
2023-01-30T16:19:26.566Z,1.63
2023-01-30T16:21:58.246Z,1.64
2023-01-30T16:24:32.217Z,1.63
2023-01-30T16:27:03.675Z,1.61
2023-01-30T16:29:36.929Z,1.63
2023-01-30T16:32:17.629Z,1.63
2023-01-30T16:34:47.970Z,1.62
2023-01-30T16:37:20.628Z,1.59
2023-01-30T16:40:14.001Z,1.57
2023-01-30T16:42:42.409Z,1.57
2023-01-30T16:45:37.995Z,1.54
2023-01-30T16:48:24.653Z,1.51
2023-01-30T16:50:58.930Z,1.47
2023-01-30T16:53:30.737Z,1.48
2023-01-30T16:56:15.253Z,1.49
2023-01-30T16:58:50.154Z,1.49
2023-01-30T17:01:18.596Z,1.47
2023-01-30T17:03:52.294Z,1.47
2023-01-30T17:06:34.361Z,1.45
2023-01-30T17:09:05.091Z,1.46
2023-01-30T17:11:41.256Z,1.47
2023-01-30T17:14:26.137Z,1.49
2023-01-30T17:17:10.724Z,1.48
2023-01-30T17:19:39.075Z,1.44
2023-01-30T17:22:19.311Z,1.45
2023-01-30T17:24:47.443Z,1.45
2023-01-30T17:27:15.502Z,1.45
2023-01-30T17:29:45.745Z,1.48
2023-01-30T17:32:14.225Z,1.47
2023-01-30T17:34:43.880Z,1.45
2023-01-30T17:37:16.729Z,1.46
2023-01-30T17:39:44.776Z,1.46
2023-01-30T17:42:13.984Z,1.44
2023-01-30T17:44:42.428Z,1.42
2023-01-30T17:47:11.618Z,1.38
2023-01-30T17:49:40.028Z,1.34
2023-01-30T17:52:08.398Z,1.31
2023-01-30T17:54:36.456Z,1.29
2023-01-30T17:57:05.908Z,1.30
2023-01-30T17:59:34.678Z,1.30
2023-01-30T18:02:03.014Z,1.33
2023-01-30T18:04:31.156Z,1.37
2023-01-30T18:07:03.731Z,1.39
2023-01-30T18:09:32.101Z,1.40
2023-01-30T18:12:00.511Z,1.43
2023-01-30T18:14:28.975Z,1.40
2023-01-30T18:17:00.302Z,1.38
2023-01-30T18:19:29.803Z,1.37
2023-01-30T18:21:58.573Z,1.38
2023-01-30T18:24:26.827Z,1.37
2023-01-30T18:26:55.970Z,1.37
2023-01-30T18:29:24.097Z,1.39
2023-01-30T18:31:52.711Z,1.36
2023-01-30T18:34:21.178Z,1.35
2023-01-30T18:36:49.202Z,1.36
2023-01-30T18:39:20.339Z,1.39
2023-01-30T18:41:48.415Z,1.38
2023-01-30T18:44:16.571Z,1.35
2023-01-30T18:46:45.124Z,1.27
2023-01-30T18:49:13.834Z,1.23
2023-01-30T18:51:45.735Z,1.22
2023-01-30T18:54:20.932Z,1.23
2023-01-30T18:56:52.281Z,1.23
2023-01-30T18:59:20.483Z,1.20
2023-01-30T19:01:48.799Z,1.09
2023-01-30T19:04:17.905Z,1.00
2023-01-30T19:06:46.073Z,0.95
2023-01-30T19:09:15.308Z,0.93
2023-01-30T19:12:02.240Z,0.93
2023-01-30T19:14:30.481Z,0.97
2023-01-30T19:16:58.748Z,0.97
2023-01-30T19:19:27.392Z,0.95
2023-01-30T19:21:55.535Z,0.92
2023-01-30T19:24:25.090Z,0.88
2023-01-30T19:26:53.408Z,0.84
2023-01-30T19:29:23.292Z,0.81
2023-01-30T19:31:52.032Z,0.77
2023-01-30T19:34:21.169Z,0.74
2023-01-30T19:36:49.383Z,0.71
2023-01-30T19:39:17.824Z,0.69
2023-01-30T19:41:50.171Z,0.69
2023-01-30T19:44:21.110Z,0.68
2023-01-30T19:46:50.711Z,0.64
2023-01-30T19:49:19.032Z,0.60
2023-01-30T19:51:47.224Z,0.57
2023-01-30T19:54:16.255Z,0.56
2023-01-30T19:56:48.489Z,0.54
2023-01-30T19:59:16.841Z,0.54
2023-01-30T20:01:50.154Z,0.56
2023-01-30T20:04:18.454Z,0.57
2023-01-30T20:06:49.769Z,0.57
2023-01-30T20:09:19.350Z,0.56
2023-01-30T20:11:47.734Z,0.55
2023-01-30T20:14:18.817Z,0.54
2023-01-30T20:16:47.534Z,0.53
2023-01-30T20:19:16.782Z,0.46
2023-01-30T20:21:45.600Z,0.45
2023-01-30T20:24:17.475Z,0.45
2023-01-30T20:26:48.357Z,0.40
2023-01-30T20:29:18.106Z,0.33
2023-01-30T20:31:49.948Z,0.27
2023-01-30T20:34:19.030Z,0.19
2023-01-30T20:36:47.666Z,0.14
2023-01-30T20:39:17.321Z,0.09
2023-01-30T20:41:46.060Z,0.08
2023-01-30T20:44:14.700Z,0.05
2023-01-30T20:46:44.950Z,0.02
2023-01-30T20:49:15.066Z,0.04
2023-01-30T20:51:46.474Z,0.06
2023-01-30T20:54:14.867Z,0.02
2023-01-30T20:56:44.744Z,-0.05
2023-01-30T20:59:15.240Z,-0.09
2023-01-30T21:01:45.721Z,-0.07
2023-01-30T21:04:15.227Z,-0.06
2023-01-30T21:06:45.686Z,-0.10
2023-01-30T21:09:20.540Z,-0.13
2023-01-30T21:11:48.994Z,-0.14
2023-01-30T21:14:18.192Z,-0.15
2023-01-30T21:16:46.667Z,-0.13
2023-01-30T21:19:16.556Z,-0.13
2023-01-30T21:21:51.002Z,-0.13
2023-01-30T21:24:24.658Z,-0.11
2023-01-30T21:26:53.282Z,-0.08
2023-01-30T21:29:23.319Z,-0.09
2023-01-30T21:31:52.196Z,-0.10
2023-01-30T21:34:20.471Z,-0.10
2023-01-30T21:37:08.774Z,-0.09
2023-01-30T21:39:56.809Z,-0.07
2023-01-30T21:42:43.631Z,-0.06
2023-01-30T21:45:11.760Z,-0.05
2023-01-30T21:47:40.338Z,-0.08
2023-01-30T21:50:12.065Z,-0.10
2023-01-30T21:52:40.420Z,-0.11
2023-01-30T21:55:09.631Z,-0.12
2023-01-30T21:57:38.039Z,-0.13
2023-01-30T22:00:06.680Z,-0.20
2023-01-30T22:02:35.258Z,-0.20
2023-01-30T22:05:03.859Z,-0.16
2023-01-30T22:07:32.871Z,-0.16
2023-01-30T22:10:03.980Z,-0.16
2023-01-30T22:12:32.814Z,-0.13
2023-01-30T22:15:01.595Z,-0.10
2023-01-30T22:17:30.083Z,-0.11
2023-01-30T22:19:58.377Z,-0.11
2023-01-30T22:22:26.528Z,-0.11
2023-01-30T22:24:54.870Z,-0.11
2023-01-30T22:27:23.236Z,-0.07
2023-01-30T22:29:51.954Z,-0.05
2023-01-30T22:32:23.182Z,-0.03
2023-01-30T22:34:51.909Z,0.01
2023-01-30T22:37:20.047Z,0.04
2023-01-30T22:39:48.061Z,0.07
2023-01-30T22:42:16.760Z,0.08
2023-01-30T22:44:44.868Z,0.05
2023-01-30T22:47:13.012Z,0.05
2023-01-30T22:49:45.258Z,0.08
2023-01-30T22:52:13.321Z,0.07
2023-01-30T22:54:41.665Z,0.06
2023-01-30T22:57:10.113Z,0.02
2023-01-30T22:59:38.295Z,0.00
2023-01-30T23:02:10.385Z,-0.02
2023-01-30T23:04:39.109Z,-0.04
2023-01-30T23:07:07.551Z,-0.03
2023-01-30T23:09:36.735Z,-0.03
2023-01-30T23:12:24.696Z,-0.01
2023-01-30T23:14:53.269Z,0.03
2023-01-30T23:17:40.282Z,0.06
2023-01-30T23:20:09.706Z,0.07
2023-01-30T23:22:37.960Z,0.08
2023-01-30T23:25:06.784Z,0.10
2023-01-30T23:27:35.524Z,0.10
2023-01-30T23:30:04.676Z,0.10
2023-01-30T23:32:32.938Z,0.09
2023-01-30T23:35:01.871Z,0.12
2023-01-30T23:37:50.522Z,0.12
2023-01-30T23:40:18.684Z,0.13
2023-01-30T23:42:47.280Z,0.13
2023-01-30T23:45:15.454Z,0.12
2023-01-30T23:47:43.734Z,0.12
2023-01-30T23:50:11.795Z,0.16
2023-01-30T23:52:40.069Z,0.19
2023-01-30T23:55:09.297Z,0.19
2023-01-30T23:57:38.602Z,0.19
